Terminal Aerodrome Forecast
Issued by NWS Twin Cities, MN

Home | Current Version | Previous Version | Text Only | Print | Product List | Glossary On
Versions: 1 2 3 4 5 6 7 8 9 10 11 12 13 14 15 16
000
FTUS43 KMPX 300524
TAFEAU
TAF
KEAU 300524Z 3006/0106 18008KT P6SM OVC024
     FM300900 15005KT P6SM -RA OVC018
     FM301200 12004KT 4SM -RASN BR BKN007 OVC012
     FM301500 15005KT 2SM -RASN BR OVC005
     FM302000 35005KT 4SM -SHRA BR OVC010
     FM010400 31005KT 5SM BR VCSH OVC008=

USA.gov is the U.S. government's official web portal to all federal, state and local government web resources and services.